Time;durP1;ratioP1;P1;durP2;ratioP2;P2;SDS_P1;SDS_P2;PMS_P1;PMS_P2;Temp;Humidity;BMP_temperature;BMP_pressure;BME280_temperature;BME280_humidity;BME280_pressure;Samples;Min_cycle;Max_cycle;Signal;HPM_P1;HPM_P2
2023/10/11 00:03:17;;;;;;;10.10;4.60;;;;;;;;;;5013545;28;20823;-72
2023/10/11 00:05:45;;;;;;;16.43;4.70;;;;;;;;;;5012100;28;20418;-71
2023/10/11 00:08:25;;;;;;;6.60;4.17;;;;;;;;;;5013926;28;20449;-71
2023/10/11 00:10:55;;;;;;;6.27;4.13;;;;;;;;;;5012202;28;20433;-72
2023/10/11 00:13:22;;;;;;;7.60;4.60;;;;;;;;;;5012253;28;20422;-72
2023/10/11 00:15:49;;;;;;;8.80;4.73;;;;;;;;;;5013098;28;20763;-71
2023/10/11 00:18:30;;;;;;;6.63;4.40;;;;;;;;;;5013144;28;20446;-72
2023/10/11 00:20:59;;;;;;;9.30;4.10;;;;;;;;;;5012027;28;20834;-71
2023/10/11 00:23:26;;;;;;;7.73;4.50;;;;;;;;;;5013330;28;20457;-75
2023/10/11 00:25:53;;;;;;;10.10;5.53;;;;;;;;;;5012585;28;20414;-71
2023/10/11 00:28:24;;;;;;;10.40;4.50;;;;;;;;;;5012698;28;20422;-71
2023/10/11 00:30:54;;;;;;;6.10;4.57;;;;;;;;;;5012845;28;20984;-70
2023/10/11 00:33:20;;;;;;;7.77;4.37;;;;;;;;;;5011727;28;20427;-71
2023/10/11 00:35:50;;;;;;;7.20;4.27;;;;;;;;;;5013020;28;20746;-70
2023/10/11 00:38:20;;;;;;;6.63;4.57;;;;;;;;;;5013016;28;20435;-70
2023/10/11 00:40:48;;;;;;;6.43;4.93;;;;;;;;;;5013066;28;20443;-71
2023/10/11 00:43:21;;;;;;;9.63;4.00;;;;;;;;;;5012801;28;20460;-70
2023/10/11 00:45:48;;;;;;;7.70;4.30;;;;;;;;;;5012459;28;20435;-70
2023/10/11 00:48:19;;;;;;;6.43;3.63;;;;;;;;;;5012704;28;20466;-69
2023/10/11 00:50:45;;;;;;;10.30;5.03;;;;;;;;;;5012845;28;20446;-71
2023/10/11 00:53:13;;;;;;;7.47;4.13;;;;;;;;;;5011449;28;20475;-70
2023/10/11 00:55:41;;;;;;;7.23;3.53;;;;;;;;;;5010912;28;20437;-70
2023/10/11 00:58:06;;;;;;;5.53;3.60;;;;;;;;;;5012504;28;20787;-70
2023/10/11 01:00:36;;;;;;;8.00;4.90;;;;;;;;;;5012588;28;20421;-71
2023/10/11 01:03:03;;;;;;;10.40;4.83;;;;;;;;;;5012409;28;20465;-71
2023/10/11 01:05:32;;;;;;;8.60;4.27;;;;;;;;;;5011174;28;20791;-70
2023/10/11 01:07:58;;;;;;;8.00;3.93;;;;;;;;;;5011221;28;20992;-71
2023/10/11 01:10:28;;;;;;;11.80;5.57;;;;;;;;;;5012411;28;20412;-71
2023/10/11 01:12:57;;;;;;;6.57;4.87;;;;;;;;;;5012458;28;20426;-70
2023/10/11 01:15:23;;;;;;;7.17;4.50;;;;;;;;;;5012111;28;20409;-70
2023/10/11 01:17:49;;;;;;;8.17;5.20;;;;;;;;;;5012349;28;20933;-71
2023/10/11 01:20:17;;;;;;;8.40;4.97;;;;;;;;;;5010881;28;20434;-71
2023/10/11 01:22:44;;;;;;;8.13;4.27;;;;;;;;;;5010870;28;20485;-71
2023/10/11 01:25:18;;;;;;;7.33;4.30;;;;;;;;;;5012155;28;20440;-70
2023/10/11 01:27:44;;;;;;;12.87;5.80;;;;;;;;;;5012234;28;20511;-71
2023/10/11 01:30:11;;;;;;;6.23;4.80;;;;;;;;;;5012160;28;20408;-71
2023/10/11 01:32:38;;;;;;;5.80;3.90;;;;;;;;;;5010764;28;20438;-71
2023/10/11 01:35:07;;;;;;;8.30;4.80;;;;;;;;;;5012047;28;20417;-71
2023/10/11 01:37:41;;;;;;;9.83;4.33;;;;;;;;;;5011762;28;20781;-71
2023/10/11 01:40:08;;;;;;;10.53;4.90;;;;;;;;;;5010786;28;20429;-70
2023/10/11 01:42:36;;;;;;;7.40;5.17;;;;;;;;;;5010939;28;20473;-70
2023/10/11 01:45:03;;;;;;;6.03;4.00;;;;;;;;;;5011872;28;20436;-71
2023/10/11 01:47:31;;;;;;;6.70;4.87;;;;;;;;;;5010502;28;20447;-70
2023/10/11 01:49:57;;;;;;;6.70;4.37;;;;;;;;;;5012099;28;20501;-71
2023/10/11 01:52:25;;;;;;;8.43;4.63;;;;;;;;;;5012098;28;20856;-71
2023/10/11 01:54:51;;;;;;;6.33;4.50;;;;;;;;;;5010761;28;20429;-71
2023/10/11 01:57:17;;;;;;;8.67;5.00;;;;;;;;;;5035025;22;20922;-69
2023/10/11 01:59:43;;;;;;;7.07;5.53;;;;;;;;;;5010555;28;20473;-71
2023/10/11 02:02:10;;;;;;;6.70;4.57;;;;;;;;;;5012020;28;20461;-69
2023/10/11 02:04:40;;;;;;;6.83;4.43;;;;;;;;;;5010297;28;20422;-70
2023/10/11 02:07:07;;;;;;;8.87;4.80;;;;;;;;;;5010529;28;20449;-72
2023/10/11 02:09:33;;;;;;;6.57;4.40;;;;;;;;;;5011947;28;20399;-72
2023/10/11 02:11:59;;;;;;;13.13;5.33;;;;;;;;;;5012034;28;20413;-69
2023/10/11 02:14:29;;;;;;;19.50;4.70;;;;;;;;;;5011556;28;20928;-70
2023/10/11 02:16:55;;;;;;;9.53;5.20;;;;;;;;;;5011854;28;20438;-70
2023/10/11 02:19:23;;;;;;;6.93;4.70;;;;;;;;;;5011817;28;20509;-70
2023/10/11 02:21:49;;;;;;;9.40;4.70;;;;;;;;;;5011816;28;20406;-70
2023/10/11 02:24:15;;;;;;;6.70;4.50;;;;;;;;;;5011689;28;20423;-70
2023/10/11 02:26:49;;;;;;;12.20;5.47;;;;;;;;;;5010372;28;20437;-71
2023/10/11 02:29:15;;;;;;;6.50;4.20;;;;;;;;;;5010422;28;20432;-73
2023/10/11 02:31:41;;;;;;;10.37;4.97;;;;;;;;;;5011629;28;20440;-71
2023/10/11 02:34:13;;;;;;;14.30;4.77;;;;;;;;;;5011633;28;20414;-71
2023/10/11 02:36:43;;;;;;;9.83;5.10;;;;;;;;;;5011391;28;20425;-70
2023/10/11 02:39:17;;;;;;;8.83;5.27;;;;;;;;;;5011665;28;20465;-70
2023/10/11 02:41:45;;;;;;;8.43;4.90;;;;;;;;;;5010351;28;20459;-69
2023/10/11 02:44:12;;;;;;;6.63;4.53;;;;;;;;;;5011542;28;20850;-70
2023/10/11 02:46:42;;;;;;;8.00;5.00;;;;;;;;;;5010032;28;20430;-70
2023/10/11 02:49:18;;;;;;;8.00;4.63;;;;;;;;;;5011331;28;20469;-70
2023/10/11 02:51:52;;;;;;;8.70;4.80;;;;;;;;;;5015111;28;20447;-69
2023/10/11 02:54:18;;;;;;;6.43;4.50;;;;;;;;;;5015084;28;20938;-70
2023/10/11 02:56:47;;;;;;;8.03;6.10;;;;;;;;;;5014509;28;20438;-72
2023/10/11 02:59:19;;;;;;;9.57;5.53;;;;;;;;;;5014814;28;20501;-71
2023/10/11 03:01:59;;;;;;;7.60;4.20;;;;;;;;;;5014861;28;20963;-71
2023/10/11 03:04:29;;;;;;;7.40;4.50;;;;;;;;;;5014879;28;20819;-71
2023/10/11 03:06:55;;;;;;;7.57;4.80;;;;;;;;;;5014555;28;20820;-70
2023/10/11 03:09:26;;;;;;;7.03;4.50;;;;;;;;;;5014775;28;20619;-70
2023/10/11 03:11:52;;;;;;;8.50;5.07;;;;;;;;;;5013444;28;20411;-71
2023/10/11 03:14:20;;;;;;;7.73;5.07;;;;;;;;;;5014553;28;20468;-70
2023/10/11 03:16:55;;;;;;;8.60;4.80;;;;;;;;;;5014095;28;20425;-71
2023/10/11 03:19:22;;;;;;;9.97;4.90;;;;;;;;;;5014631;28;20414;-71
2023/10/11 03:21:53;;;;;;;5.90;3.80;;;;;;;;;;5014485;28;20407;-71
2023/10/11 03:24:19;;;;;;;9.23;5.23;;;;;;;;;;5014539;28;20421;-70
2023/10/11 03:26:48;;;;;;;9.03;5.70;;;;;;;;;;5014230;28;20406;-71
2023/10/11 03:29:21;;;;;;;14.20;5.30;;;;;;;;;;5014288;28;20414;-70
2023/10/11 03:31:47;;;;;;;7.97;4.67;;;9.90;52.90;;;;;;5014391;28;20398;-69
2023/10/11 03:34:20;;;;;;;9.07;5.43;;;9.90;54.80;;;;;;5014214;28;20493;-71
2023/10/11 03:36:52;;;;;;;8.73;5.00;;;;;;;;;;5014187;28;21011;-70
2023/10/11 03:42:07;;;;;;;7.80;4.60;;;;;;;;;;5014321;28;20417;-70
2023/10/11 03:44:39;;;;;;;10.00;4.63;;;9.80;58.80;;;;;;5013971;28;20431;-70
2023/10/11 03:47:08;;;;;;;10.10;5.60;;;9.90;55.70;;;;;;5013845;28;20427;-71
2023/10/11 03:49:50;;;;;;;8.53;5.67;;;9.90;55.80;;;;;;5014001;28;20452;-72
2023/10/11 03:52:22;;;;;;;10.53;4.93;;;10.00;54.50;;;;;;5014388;28;20418;-71
2023/10/11 03:55:02;;;;;;;8.20;5.57;;;10.00;55.50;;;;;;5012556;28;20437;-73
2023/10/11 03:57:28;;;;;;;10.83;5.40;;;10.00;56.00;;;;;;5013292;28;20879;-70
2023/10/11 03:59:54;;;;;;;7.67;5.00;;;10.00;55.40;;;;;;5013784;28;20494;-71
2023/10/11 04:02:19;;;;;;;7.50;5.20;;;10.00;55.30;;;;;;5013656;28;20209;-72
2023/10/11 04:04:49;;;;;;;7.30;4.90;;;10.00;54.00;;;;;;5013701;28;20856;-71
2023/10/11 04:07:21;;;;;;;6.47;4.90;;;10.00;55.80;;;;;;5013506;28;20202;-71
2023/10/11 04:09:47;;;;;;;9.07;4.87;;;10.00;56.10;;;;;;5013527;28;20429;-71
2023/10/11 04:12:13;;;;;;;9.63;4.80;;;9.90;55.10;;;;;;5013523;28;20475;-71
2023/10/11 04:14:40;;;;;;;11.10;5.67;;;9.90;55.40;;;;;;5013665;28;20288;-71
2023/10/11 04:19:49;;;;;;;9.70;5.77;;;9.90;57.10;;;;;;5013654;28;20421;-71
2023/10/11 04:22:23;;;;;;;7.30;5.20;;;9.90;56.50;;;;;;5013300;28;20453;-71
2023/10/11 04:24:53;;;;;;;6.67;4.67;;;9.90;56.10;;;;;;5013516;28;20434;-71
2023/10/11 04:29:50;;;;;;;7.97;5.20;;;9.90;57.60;;;;;;5013381;28;20414;-71
2023/10/11 04:32:40;;;;;;;11.87;5.60;;;9.90;57.10;;;;;;5013148;28;20455;-72
2023/10/11 04:35:19;;;;;;;8.00;5.20;;;9.80;57.40;;;;;;5013009;28;20505;-71
2023/10/11 04:37:51;;;;;;;7.70;5.20;;;9.80;56.50;;;;;;5011612;28;20450;-71
2023/10/11 04:40:34;;;;;;;8.03;5.03;;;9.80;55.60;;;;;;5013193;28;20417;-71
2023/10/11 04:43:06;;;;;;;9.17;5.27;;;9.80;56.10;;;;;;5012958;28;20461;-71
2023/10/11 04:45:43;;;;;;;7.07;4.90;;;9.80;57.10;;;;;;5011578;28;20430;-71
2023/10/11 04:48:18;;;;;;;8.87;5.30;;;9.80;58.30;;;;;;5011659;28;20493;-71
2023/10/11 04:50:46;;;;;;;7.93;4.53;;;9.70;59.60;;;;;;5012851;28;20430;-71
2023/10/11 04:53:18;;;;;;;12.03;4.70;;;9.60;59.40;;;;;;5012806;28;20406;-71
2023/10/11 04:56:01;;;;;;;9.30;5.13;;;9.60;59.30;;;;;;5011409;28;20432;-71
2023/10/11 05:01:40;;;;;;;7.60;4.30;;;9.50;59.00;;;;;;5010564;28;20446;-71
2023/10/11 05:04:12;;;;;;;10.17;5.00;;;9.50;58.70;;;;;;5012034;28;20473;-71
2023/10/11 05:06:41;;;;;;;7.10;5.00;;;9.50;59.10;;;;;;5012419;28;20964;-71
2023/10/11 05:09:56;;;;;;;8.10;5.60;;;9.50;58.80;;;;;;5012580;28;20418;-72
2023/10/11 05:12:07;;;;;;;10.00;4.60;;;9.40;59.20;;;;;;5011828;28;20514;-71
2023/10/11 05:14:39;;;;;;;7.97;5.33;;;9.50;61.90;;;;;;5012281;28;20412;-71
2023/10/11 05:27:47;;;;;;;7.40;4.73;;;9.30;60.70;;;;;;5012724;28;20476;-71
2023/10/11 05:30:26;;;;;;;10.40;5.80;;;9.30;60.60;;;;;;5012141;28;20492;-71
2023/10/11 05:33:15;;;;;;;8.30;4.97;;;9.30;60.00;;;;;;5011185;28;20503;-71
2023/10/11 05:52:08;;;;;;;7.77;5.00;;;9.40;59.30;;;;;;5012452;28;20448;-69
2023/10/11 05:54:36;;;;;;;21.30;6.20;;;9.40;59.10;;;;;;5012182;28;20448;-69
2023/10/11 05:57:03;;;;;;;11.90;6.30;;;9.40;60.20;;;;;;5012023;28;20272;-69
2023/10/11 05:59:32;;;;;;;11.70;6.50;;;9.40;59.50;;;;;;5006848;28;20444;-69
2023/10/11 06:01:58;;;;;;;10.00;6.13;;;9.50;59.90;;;;;;5008658;28;20824;-69
2023/10/11 06:04:24;;;;;;;13.50;7.03;;;9.50;60.30;;;;;;5012154;28;20423;-69
2023/10/11 06:06:57;;;;;;;9.83;6.87;;;9.60;58.90;;;;;;4993157;28;20452;-69
2023/10/11 06:09:26;;;;;;;9.70;4.70;;;9.60;58.40;;;;;;4992563;28;20166;-69
2023/10/11 06:11:52;;;;;;;8.60;5.73;;;9.70;58.40;;;;;;4992502;28;20518;-69
2023/10/11 06:14:20;;;;;;;13.90;5.87;;;9.70;57.30;;;;;;5008472;28;20797;-69
2023/10/11 06:16:57;;;;;;;10.03;5.70;;;9.80;57.10;;;;;;5011502;28;20563;-69
2023/10/11 06:19:26;;;;;;;5.80;4.80;;;9.90;56.90;;;;;;4992276;28;20422;-69
2023/10/11 06:21:59;;;;;;;8.03;5.07;;;10.00;55.00;;;;;;4992084;28;20888;-68
2023/10/11 06:24:34;;;;;;;12.60;6.70;;;10.10;53.60;;;;;;4992320;28;20415;-69
2023/10/11 06:29:37;;;;;;;7.63;5.63;;;10.30;52.70;;;;;;5015850;28;20405;-69
2023/10/11 06:32:10;;;;;;;13.87;5.77;;;10.30;51.60;;;;;;5015198;28;20909;-70
2023/10/11 06:34:36;;;;;;;12.80;5.60;;;10.40;51.60;;;;;;5015611;28;20414;-69
2023/10/11 06:37:02;;;;;;;9.40;5.80;;;10.50;51.20;;;;;;5015274;28;20438;-69
2023/10/11 06:42:14;;;;;;;10.40;6.10;;;10.70;48.90;;;;;;5015122;28;20756;-69
2023/10/11 06:44:47;;;;;;;7.57;5.83;;;10.80;48.20;;;;;;5014142;28;20464;-69
2023/10/11 06:47:13;;;;;;;10.83;5.77;;;10.90;47.50;;;;;;5014991;28;20449;-69
2023/10/11 06:49:44;;;;;;;11.97;5.90;;;11.00;46.40;;;;;;5014043;28;20422;-69
2023/10/11 06:52:17;;;;;;;13.97;6.80;;;11.20;44.50;;;;;;5015736;28;20410;-69
2023/10/11 06:54:47;;;;;;;18.13;7.13;;;11.30;43.50;;;;;;5004221;28;20418;-69
2023/10/11 06:57:17;;;;;;;13.10;5.70;;;11.50;42.70;;;;;;5010827;28;20836;-69
2023/10/11 06:59:43;;;;;;;13.33;5.67;;;11.60;42.90;;;;;;5014965;28;20522;-69
2023/10/11 07:02:17;;;;;;;10.90;6.90;;;11.60;43.10;;;;;;5005976;28;20434;-69
2023/10/11 07:04:52;;;;;;;10.50;5.27;;;11.70;42.80;;;;;;4997383;28;20958;-69
2023/10/11 07:07:20;;;;;;;12.47;7.07;;;11.90;40.00;;;;;;4996977;28;20517;-69
2023/10/11 07:09:58;;;;;;;13.37;6.03;;;12.10;37.90;;;;;;4995317;28;20423;-69
2023/10/11 07:12:28;;;;;;;13.47;6.27;;;12.20;38.10;;;;;;5013664;28;20500;-68
2023/10/11 07:14:57;;;;;;;16.50;6.83;;;12.40;36.30;;;;;;5013272;28;20430;-69
2023/10/11 07:17:24;;;;;;;9.47;6.77;;;12.40;35.70;;;;;;5014120;28;20465;-70
2023/10/11 07:19:50;;;;;;;9.07;6.50;;;12.50;35.20;;;;;;5007832;28;20427;-70
2023/10/11 07:22:18;;;;;;;11.07;6.70;;;12.60;35.30;;;;;;4995127;28;20408;-70
2023/10/11 07:24:45;;;;;;;22.10;6.60;;;12.70;33.90;;;;;;5006075;28;20420;-70
2023/10/11 07:27:15;;;;;;;8.53;6.37;;;12.70;33.30;;;;;;5013013;28;20529;-70
2023/10/11 07:29:45;;;;;;;14.90;8.13;;;12.80;33.40;;;;;;5014256;28;20770;-69
2023/10/11 07:32:11;;;;;;;16.60;6.87;;;13.00;31.90;;;;;;5014334;28;20461;-70
2023/10/11 07:34:38;;;;;;;11.20;6.70;;;13.00;31.80;;;;;;5014529;28;20418;-70
2023/10/11 07:37:05;;;;;;;9.27;6.40;;;13.10;31.00;;;;;;5015063;28;20674;-70
2023/10/11 07:39:34;;;;;;;12.47;6.90;;;13.20;30.20;;;;;;5024530;28;20410;-69
2023/10/11 07:42:07;;;;;;;13.20;7.13;;;13.30;28.20;;;;;;5014122;28;20428;-69
2023/10/11 07:44:36;;;;;;;12.00;5.10;;;13.40;27.70;;;;;;5013980;28;20916;-70
2023/10/11 07:47:07;;;;;;;11.43;6.20;;;13.60;27.90;;;;;;5013641;28;20435;-70
2023/10/11 07:49:39;;;;;;;11.67;5.73;;;13.60;27.20;;;;;;5012599;28;20466;-69
2023/10/11 07:52:08;;;;;;;8.80;5.70;;;13.70;27.10;;;;;;5013917;28;20409;-74
2023/10/11 07:54:35;;;;;;;7.77;4.80;;;13.80;26.30;;;;;;5012673;28;20499;-71
2023/10/11 07:57:03;;;;;;;10.37;5.93;;;13.90;24.60;;;;;;5030470;22;22200;-69
2023/10/11 07:59:30;;;;;;;9.13;5.20;;;14.00;24.20;;;;;;5013634;28;20909;-68
2023/10/11 08:02:07;;;;;;;9.27;5.47;;;14.20;23.50;;;;;;5033550;28;20418;-68
2023/10/11 08:04:35;;;;;;;8.90;5.30;;;14.30;23.70;;;;;;5033371;28;20480;-68
2023/10/11 08:07:06;;;;;;;10.60;6.37;;;14.50;23.20;;;;;;5031711;28;20452;-68
2023/10/11 08:09:45;;;;;;;10.20;6.67;;;14.70;22.20;;;;;;5033492;28;20888;-68
2023/10/11 08:12:15;;;;;;;9.67;6.00;;;15.10;21.00;;;;;;5022651;28;20423;-68
2023/10/11 08:14:45;;;;;;;11.80;6.50;;;15.10;20.20;;;;;;5013790;28;20416;-68
2023/10/11 08:17:15;;;;;;;11.60;6.60;;;15.20;19.30;;;;;;5013374;28;20434;-68
2023/10/11 08:19:44;;;;;;;9.23;5.87;;;15.70;18.00;;;;;;5014465;28;20406;-69
2023/10/11 08:22:17;;;;;;;12.70;7.67;;;15.70;18.00;;;;;;5013425;28;20421;-68
2023/10/11 08:24:56;;;;;;;11.00;6.00;;;15.60;18.60;;;;;;5022877;28;20445;-69
2023/10/11 08:27:28;;;;;;;10.77;5.80;;;15.60;17.90;;;;;;4993464;28;20454;-69
2023/10/11 08:30:07;;;;;;;9.83;5.43;;;15.60;17.90;;;;;;4993480;28;20423;-69
2023/10/11 08:32:37;;;;;;;11.63;6.00;;;15.60;17.90;;;;;;4993509;28;20839;-69
2023/10/11 08:35:06;;;;;;;14.73;6.47;;;15.70;17.50;;;;;;4992128;28;20435;-69
2023/10/11 08:37:32;;;;;;;10.77;5.30;;;15.70;17.00;;;;;;5022095;28;20845;-69
2023/10/11 08:39:58;;;;;;;7.37;4.80;;;15.80;17.30;;;;;;5032184;28;20524;-69
2023/10/11 08:42:30;;;;;;;11.70;6.47;;;15.90;17.50;;;;;;5032456;28;20205;-69
2023/10/11 08:45:00;;;;;;;12.27;6.10;;;16.00;17.70;;;;;;5032685;28;20422;-69
2023/10/11 08:47:26;;;;;;;8.27;5.40;;;16.20;17.10;;;;;;5031711;28;20441;-69
2023/10/11 08:49:53;;;;;;;10.90;5.87;;;16.30;17.50;;;;;;5032532;28;20410;-69
2023/10/11 08:52:23;;;;;;;14.93;5.80;;;16.40;17.20;;;;;;5032434;28;20410;-69
2023/10/11 08:54:49;;;;;;;9.27;5.77;;;16.50;16.50;;;;;;5032413;28;20504;-69
2023/10/11 08:57:21;;;;;;;9.40;5.63;;;16.60;16.40;;;;;;5031881;28;20457;-69
2023/10/11 08:59:49;;;;;;;10.00;4.60;;;16.80;16.20;;;;;;5032510;28;20414;-69
2023/10/11 09:02:17;;;;;;;5.23;4.30;;;17.00;16.20;;;;;;5032139;28;20897;-69
2023/10/11 09:04:56;;;;;;;10.07;4.77;;;17.10;15.50;;;;;;5032317;28;20512;-69
2023/10/11 09:07:37;;;;;;;6.10;4.80;;;17.20;14.60;;;;;;5032055;28;20971;-69
2023/10/11 09:10:27;;;;;;;9.20;6.00;;;17.30;14.80;;;;;;5032202;28;20481;-69
2023/10/11 09:12:56;;;;;;;9.87;4.60;;;17.60;13.90;;;;;;5032266;28;20509;-69
2023/10/11 09:15:23;;;;;;;8.03;5.60;;;17.70;13.00;;;;;;5031990;28;20422;-69
2023/10/11 09:17:50;;;;;;;8.43;5.30;;;17.90;12.70;;;;;;5031944;28;20437;-69
2023/10/11 09:20:23;;;;;;;7.70;5.17;;;18.00;12.40;;;;;;5032002;28;20410;-69
2023/10/11 09:22:55;;;;;;;6.20;4.40;;;18.20;12.10;;;;;;5031945;28;20495;-69
2023/10/11 09:25:22;;;;;;;11.73;6.40;;;18.40;11.50;;;;;;5031992;28;20971;-69
2023/10/11 09:27:53;;;;;;;11.67;6.80;;;18.60;11.10;;;;;;5031911;28;20451;-69
2023/10/11 09:30:21;;;;;;;9.43;6.03;;;18.80;11.30;;;;;;5031920;28;20962;-69
2023/10/11 09:32:51;;;;;;;15.53;7.23;;;18.90;10.40;;;;;;5030452;28;20473;-69
2023/10/11 09:35:26;;;;;;;11.70;7.93;;;19.10;10.10;;;;;;5031807;28;20437;-69
2023/10/11 09:37:58;;;;;;;9.47;6.43;;;19.20;9.80;;;;;;5031645;28;20444;-69
2023/10/11 09:40:35;;;;;;;10.70;6.10;;;19.40;9.10;;;;;;5031836;28;20494;-69
2023/10/11 09:43:01;;;;;;;9.83;5.80;;;19.50;8.30;;;;;;5031583;28;20449;-69
2023/10/11 09:45:41;;;;;;;7.50;4.57;;;19.70;7.60;;;;;;5031707;28;20410;-69
2023/10/11 09:48:12;;;;;;;5.73;4.73;;;19.80;8.10;;;;;;5031704;28;20457;-69
2023/10/11 09:50:41;;;;;;;6.77;5.67;;;20.00;6.60;;;;;;5031709;28;20909;-69
2023/10/11 09:53:12;;;;;;;6.83;4.70;;;20.20;6.40;;;;;;5031481;28;20920;-69
2023/10/11 09:55:48;;;;;;;14.63;6.90;;;20.30;6.60;;;;;;5031200;28;20854;-69
2023/10/11 09:58:25;;;;;;;7.60;6.13;;;20.60;5.40;;;;;;5031547;28;20452;-69
2023/10/11 10:01:17;;;;;;;14.03;5.93;;;20.80;5.20;;;;;;5035678;28;20468;-69
2023/10/11 10:03:46;;;;;;;14.70;6.37;;;21.00;5.00;;;;;;5035452;28;20845;-69
2023/10/11 10:06:24;;;;;;;26.70;5.60;;;21.20;4.70;;;;;;5035324;28;20421;-69
2023/10/11 10:09:23;;;;;;;11.20;4.90;;;21.40;3.90;;;;;;5035558;28;20520;-69
2023/10/11 10:12:22;;;;;;;11.10;6.00;;;21.60;3.40;;;;;;5035479;28;20412;-70
2023/10/11 10:15:13;;;;;;;5.93;5.20;;;21.80;3.30;;;;;;5027507;28;20923;-69
2023/10/11 10:18:05;;;;;;;8.70;4.97;;;21.90;2.70;;;;;;5035027;28;20457;-69
2023/10/11 10:20:34;;;;;;;6.57;5.10;;;22.00;2.20;;;;;;5029235;28;20462;-69
2023/10/11 10:23:15;;;;;;;8.50;5.67;;;22.30;2.10;;;;;;5035144;28;20453;-69
2023/10/11 10:25:48;;;;;;;7.93;5.07;;;;;;;;;;5032384;28;20426;-69
2023/10/11 10:28:32;;;;;;;11.03;4.73;;;22.60;1.00;;;;;;5035385;28;20436;-70
2023/10/11 10:31:09;;;;;;;9.63;5.43;;;22.80;1.00;;;;;;5035283;28;20939;-69
2023/10/11 10:33:35;;;;;;;6.43;5.73;;;22.90;1.00;;;;;;5035390;28;20496;-70
2023/10/11 10:36:28;;;;;;;5.87;5.03;;;;;;;;;;5016053;28;20844;-69
2023/10/11 10:39:01;;;;;;;8.10;6.37;;;;;;;;;;5029864;28;20987;-69
2023/10/11 10:41:29;;;;;;;9.80;6.07;;;23.30;1.00;;;;;;5034871;28;20409;-69
2023/10/11 10:44:04;;;;;;;6.60;4.50;;;23.50;1.00;;;;;;5034722;28;20457;-69
2023/10/11 10:46:33;;;;;;;10.90;4.40;;;23.70;1.00;;;;;;5034514;28;20930;-70
2023/10/11 10:49:01;;;;;;;8.53;5.23;;;;;;;;;;5019546;28;20489;-70
2023/10/11 10:51:35;;;;;;;12.27;6.00;;;;;;;;;;5014995;28;20414;-70
2023/10/11 10:54:04;;;;;;;11.27;6.43;;;24.00;1.00;;;;;;5014914;28;20399;-70
2023/10/11 10:56:29;;;;;;;8.53;5.80;;;24.10;1.00;;;;;;5014698;28;20450;-69
2023/10/11 10:59:04;;;;;;;11.50;6.47;;;;;;;;;;5028662;28;20457;-70
2023/10/11 11:01:34;;;;;;;12.10;7.03;;;;;;;;;;5034563;28;20201;-70
2023/10/11 11:04:00;;;;;;;18.27;9.40;;;24.40;1.00;;;;;;5034390;28;20504;-70
2023/10/11 11:06:39;;;;;;;5.53;4.97;;;24.50;1.00;;;;;;5034312;28;20414;-70
2023/10/11 11:09:13;;;;;;;8.43;4.60;;;;;;;;;;5029799;28;20441;-70
2023/10/11 11:11:38;;;;;;;13.20;6.60;;;24.90;1.00;;;;;;5032332;28;20422;-70
2023/10/11 11:14:14;;;;;;;8.20;6.23;;;;;;;;;;5016203;28;20522;-70
2023/10/11 11:16:42;;;;;;;8.60;5.10;;;25.10;1.00;;;;;;5014309;28;20172;-70
2023/10/11 11:19:16;;;;;;;14.30;6.20;;;;;;;;;;5014574;28;20506;-70
2023/10/11 11:21:44;;;;;;;9.13;6.20;;;;;;;;;;5014628;28;20780;-70
2023/10/11 11:24:27;;;;;;;6.67;5.33;;;25.40;1.00;;;;;;5014576;28;20497;-70
2023/10/11 11:26:56;;;;;;;6.30;5.07;;;25.40;1.00;;;;;;5014222;28;20494;-70
2023/10/11 11:29:31;;;;;;;15.10;8.30;;;25.60;1.00;;;;;;5014217;28;20489;-70
2023/10/11 11:31:59;;;;;;;9.13;6.67;;;25.60;1.00;;;;;;5027677;28;20426;-70
2023/10/11 11:34:34;;;;;;;7.90;6.13;;;25.70;1.00;;;;;;5033858;28;20921;-70
2023/10/11 11:37:01;;;;;;;7.03;6.27;;;;;;;;;;5033825;28;20414;-70
2023/10/11 11:39:27;;;;;;;8.00;5.47;;;;;;;;;;5033683;28;20481;-70
2023/10/11 11:41:55;;;;;;;11.83;5.53;;;;;;;;;;5033715;28;20924;-70
2023/10/11 11:44:21;;;;;;;13.83;5.83;;;;;;;;;;5033676;28;20951;-70
2023/10/11 11:46:54;;;;;;;11.67;5.30;;;;;;;;;;5033390;28;20525;-70
2023/10/11 11:49:26;;;;;;;10.17;6.07;;;26.00;1.00;;;;;;5016730;28;20780;-70
2023/10/11 11:51:53;;;;;;;9.30;6.23;;;26.00;1.00;;;;;;5014093;28;20415;-69
2023/10/11 11:54:20;;;;;;;6.90;5.53;;;26.00;1.00;;;;;;5013832;28;20430;-69
2023/10/11 11:56:46;;;;;;;8.87;5.30;;;26.10;1.00;;;;;;5013244;28;20417;-70
2023/10/11 11:59:17;;;;;;;9.80;5.47;;;26.00;1.00;;;;;;5013515;28;20438;-69
2023/10/11 12:01:52;;;;;;;11.13;5.93;;;26.00;1.00;;;;;;5014270;28;20410;-70
2023/10/11 12:04:24;;;;;;;8.40;5.90;;;26.10;1.00;;;;;;5014014;28;20512;-70
2023/10/11 12:06:50;;;;;;;7.70;5.30;;;26.20;1.00;;;;;;5014176;28;20416;-70
2023/10/11 12:09:22;;;;;;;9.47;6.20;;;26.20;1.00;;;;;;5014138;28;20510;-70
2023/10/11 12:11:53;;;;;;;6.37;4.73;;;26.20;1.00;;;;;;5015416;28;20433;-70
2023/10/11 12:14:22;;;;;;;6.70;6.00;;;26.30;1.00;;;;;;5034069;28;20488;-70
2023/10/11 12:16:48;;;;;;;8.50;5.53;;;26.40;1.00;;;;;;5033847;28;20410;-70
2023/10/11 12:19:15;;;;;;;54.93;11.70;;;26.60;1.00;;;;;;5033280;28;20434;-70
2023/10/11 12:21:41;;;;;;;10.83;6.10;;;26.60;1.00;;;;;;5033396;28;20411;-70
2023/10/11 12:24:12;;;;;;;6.00;5.33;;;26.60;1.00;;;;;;5013502;28;20470;-70
2023/10/11 12:26:42;;;;;;;6.80;5.23;;;26.60;1.00;;;;;;5014107;28;20171;-70
2023/10/11 12:29:14;;;;;;;9.30;5.80;;;26.70;1.00;;;;;;5014405;28;20493;-70
2023/10/11 12:31:41;;;;;;;9.33;5.00;;;26.60;1.00;;;;;;5013871;28;20422;-70
2023/10/11 12:34:09;;;;;;;10.17;5.53;;;26.80;1.00;;;;;;5013572;28;20446;-70
2023/10/11 12:36:38;;;;;;;9.27;5.23;;;26.80;1.00;;;;;;5013745;28;20434;-70
2023/10/11 12:39:05;;;;;;;7.50;6.20;;;26.80;1.00;;;;;;5013656;28;21013;-70
2023/10/11 12:41:31;;;;;;;6.63;5.30;;;26.80;1.00;;;;;;5012892;28;20934;-70
2023/10/11 12:43:56;;;;;;;5.50;4.50;;;26.80;1.00;;;;;;5013384;28;20534;-70
2023/10/11 12:46:22;;;;;;;5.70;4.90;;;26.90;1.00;;;;;;5013261;28;20184;-70
2023/10/11 12:48:54;;;;;;;6.97;4.90;;;27.00;1.00;;;;;;5031995;28;20242;-70
2023/10/11 12:51:22;;;;;;;4.67;4.27;;;27.00;1.00;;;;;;5033250;28;20176;-70
2023/10/11 12:53:47;;;;;;;20.00;7.87;;;27.00;1.00;;;;;;5031814;28;20434;-70
2023/10/11 12:56:14;;;;;;;7.50;5.60;;;27.00;1.00;;;;;;5033124;28;20422;-70
2023/10/11 12:58:40;;;;;;;7.63;4.87;;;27.10;1.00;;;;;;5032888;28;20294;-70
2023/10/11 13:01:11;;;;;;;7.57;4.67;;;27.10;1.00;;;;;;5032786;28;20913;-70
2023/10/11 13:03:38;;;;;;;6.00;5.40;;;27.20;1.00;;;;;;5032482;28;20242;-70
2023/10/11 13:06:09;;;;;;;8.90;5.90;;;27.40;1.00;;;;;;5027554;28;20458;-70
2023/10/11 13:08:37;;;;;;;8.43;4.60;;;27.30;1.00;;;;;;5013170;28;20434;-70
2023/10/11 13:11:05;;;;;;;6.20;5.07;;;27.20;1.00;;;;;;5012966;28;20926;-70
2023/10/11 13:13:32;;;;;;;7.93;6.30;;;27.30;1.00;;;;;;5012750;28;20435;-70
2023/10/11 13:16:01;;;;;;;6.57;5.07;;;27.30;1.00;;;;;;5012846;28;20418;-70
2023/10/11 13:18:28;;;;;;;10.23;5.50;;;27.40;1.00;;;;;;5012620;28;20857;-70
2023/10/11 13:20:55;;;;;;;33.57;10.00;;;27.40;1.00;;;;;;5029583;28;20444;-70
2023/10/11 13:23:30;;;;;;;11.53;5.40;;;27.60;1.00;;;;;;5030950;28;20875;-70
2023/10/11 13:26:00;;;;;;;6.77;5.60;;;27.50;1.00;;;;;;4992776;28;20906;-70
2023/10/11 13:28:27;;;;;;;8.63;5.50;;;27.40;1.00;;;;;;4992820;28;20431;-70
2023/10/11 13:30:55;;;;;;;6.57;5.33;;;27.40;1.00;;;;;;5010077;28;20434;-70
2023/10/11 13:33:21;;;;;;;5.83;4.73;;;27.40;1.00;;;;;;5012124;28;20850;-70
2023/10/11 13:35:48;;;;;;;7.30;5.10;;;27.40;1.00;;;;;;5012390;28;20458;-70
2023/10/11 13:38:17;;;;;;;8.10;4.83;;;27.10;1.00;;;;;;5012624;28;20790;-70
2023/10/11 13:40:44;;;;;;;7.13;5.37;;;27.10;1.00;;;;;;5012346;28;20860;-70
2023/10/11 13:43:11;;;;;;;5.40;4.90;;;27.10;1.00;;;;;;5012342;28;20473;-70
2023/10/11 13:45:40;;;;;;;7.43;5.47;;;27.10;1.00;;;;;;5012270;28;20478;-70
2023/10/11 13:48:11;;;;;;;6.23;4.53;;;27.10;1.00;;;;;;5012445;28;20996;-70
2023/10/11 13:50:39;;;;;;;13.47;5.00;;;27.10;1.00;;;;;;5012623;28;20778;-70
2023/10/11 13:53:05;;;;;;;5.93;5.33;;;27.00;1.00;;;;;;5010673;28;20793;-70
2023/10/11 13:55:40;;;;;;;5.50;5.10;;;27.10;1.00;;;;;;5025987;28;20464;-70
2023/10/11 13:58:10;;;;;;;7.93;4.77;;;26.90;1.00;;;;;;5046026;22;20554;-72
2023/10/11 14:03:41;;;;;;;10.80;5.07;;;26.90;1.00;;;;;;5031959;28;20453;-72
2023/10/11 14:08:44;;;;;;;5.30;4.43;;;27.00;1.00;;;;;;5032107;28;20487;-72
2023/10/11 14:11:14;;;;;;;5.40;5.00;;;27.00;1.00;;;;;;5031625;28;20856;-71
2023/10/11 14:13:44;;;;;;;4.63;4.10;;;26.80;1.00;;;;;;5031827;28;20483;-72
2023/10/11 14:16:14;;;;;;;6.50;4.63;;;26.90;1.00;;;;;;5036638;28;20441;-72
2023/10/11 14:18:40;;;;;;;7.90;5.40;;;26.90;1.00;;;;;;5035438;28;20507;-72
2023/10/11 14:21:12;;;;;;;7.80;4.77;;;27.00;1.00;;;;;;5031239;28;20441;-72
2023/10/11 14:23:38;;;;;;;10.37;4.67;;;27.00;1.00;;;;;;5031832;28;20199;-72
2023/10/11 14:26:05;;;;;;;6.17;5.17;;;27.10;1.00;;;;;;5029900;28;20944;-72
2023/10/11 14:28:30;;;;;;;9.20;4.60;;;27.20;1.00;;;;;;5031211;28;20853;-72